Time;durP1;ratioP1;P1;durP2;ratioP2;P2;SDS_P1;SDS_P2;PMS_P1;PMS_P2;Temp;Humidity;BMP_temperature;BMP_pressure;BME280_temperature;BME280_humidity;BME280_pressure;Samples;Min_cycle;Max_cycle;Signal;HPM_P1;HPM_P2
2023/10/27 00:01:27;;;;;;;9.88;6.20;;;10.70;99.90;;;;;;4998932;28;20038;-77
2023/10/27 00:04:13;;;;;;;11.90;6.72;;;10.70;99.90;;;;;;5014510;28;20045;-77
2023/10/27 00:06:59;;;;;;;9.93;6.47;;;10.70;99.90;;;;;;4988160;28;20049;-76
2023/10/27 00:09:45;;;;;;;8.55;6.30;;;10.70;99.90;;;;;;4993288;28;20046;-77
2023/10/27 00:12:31;;;;;;;15.57;6.90;;;10.70;99.90;;;;;;5006340;28;20049;-77
2023/10/27 00:15:17;;;;;;;11.93;5.97;;;10.60;99.90;;;;;;5000488;28;20068;-77
2023/10/27 00:18:03;;;;;;;9.63;6.32;;;10.60;99.90;;;;;;5013586;28;20375;-76
2023/10/27 00:20:49;;;;;;;9.27;5.78;;;10.60;99.90;;;;;;4990375;28;20045;-76
2023/10/27 00:23:35;;;;;;;7.43;5.75;;;10.70;99.90;;;;;;5015838;28;20095;-76
2023/10/27 00:26:22;;;;;;;9.95;5.97;;;10.70;99.90;;;;;;4992960;28;20042;-76
2023/10/27 00:29:08;;;;;;;8.90;6.22;;;10.70;99.90;;;;;;5002799;28;20050;-78
2023/10/27 00:31:54;;;;;;;10.15;6.00;;;10.70;99.90;;;;;;4987523;28;20042;-76
2023/10/27 00:34:40;;;;;;;6.82;5.28;;;10.60;99.90;;;;;;5004245;28;20033;-77
2023/10/27 00:37:26;;;;;;;9.30;5.50;;;10.70;99.90;;;;;;5005008;28;20046;-77
2023/10/27 00:40:12;;;;;;;9.85;5.88;;;10.70;99.90;;;;;;5036405;28;20057;-77
2023/10/27 00:42:58;;;;;;;9.00;5.82;;;10.70;99.90;;;;;;4987973;28;20136;-77
2023/10/27 00:45:49;;;;;;;9.43;5.78;;;10.70;99.90;;;;;;5001658;28;20076;-77
2023/10/27 00:48:35;;;;;;;9.20;5.93;;;10.70;99.90;;;;;;4997974;28;20041;-77
2023/10/27 00:51:21;;;;;;;9.88;6.03;;;10.60;99.90;;;;;;5025389;28;20056;-77
2023/10/27 00:54:08;;;;;;;8.75;6.10;;;10.70;99.90;;;;;;4985810;28;20043;-77
2023/10/27 00:56:55;;;;;;;10.60;5.88;;;10.60;99.90;;;;;;5003551;28;20710;-77
2023/10/27 00:59:41;;;;;;;13.93;7.82;;;10.60;99.90;;;;;;4998163;28;20049;-77
2023/10/27 01:02:27;;;;;;;8.95;6.60;;;10.60;99.90;;;;;;4978119;28;20073;-77
2023/10/27 01:05:15;;;;;;;12.32;6.47;;;10.60;99.90;;;;;;5014429;28;20053;-76
2023/10/27 01:08:01;;;;;;;14.30;6.28;;;10.60;99.90;;;;;;5030553;28;20037;-77
2023/10/27 01:10:46;;;;;;;8.43;6.45;;;10.60;99.90;;;;;;4999979;28;20045;-77
2023/10/27 01:13:32;;;;;;;14.73;6.57;;;10.60;99.90;;;;;;4999513;28;20110;-76
2023/10/27 01:16:18;;;;;;;7.45;6.00;;;10.60;99.90;;;;;;5022168;28;20065;-76
2023/10/27 01:19:04;;;;;;;7.90;5.47;;;10.60;99.90;;;;;;5006483;28;20406;-77
2023/10/27 01:21:50;;;;;;;10.57;5.70;;;10.50;99.90;;;;;;4984830;28;20077;-77
2023/10/27 01:24:36;;;;;;;11.70;5.40;;;10.60;99.90;;;;;;5003407;28;20030;-77
2023/10/27 01:27:22;;;;;;;11.98;6.13;;;10.60;99.90;;;;;;5015549;28;20050;-76
2023/10/27 01:30:09;;;;;;;7.38;5.65;;;10.60;99.90;;;;;;4982197;28;20046;-77
2023/10/27 01:32:55;;;;;;;12.60;5.97;;;10.60;99.90;;;;;;4994883;28;20045;-77
2023/10/27 01:35:40;;;;;;;8.60;6.47;;;10.50;99.90;;;;;;4995955;28;20138;-77
2023/10/27 01:38:26;;;;;;;7.88;6.40;;;10.60;99.90;;;;;;5000253;28;20061;-77
2023/10/27 01:41:12;;;;;;;8.73;5.93;;;10.60;99.90;;;;;;5000511;28;20501;-77
2023/10/27 01:43:59;;;;;;;12.10;5.95;;;10.60;99.90;;;;;;5011076;28;20073;-77
2023/10/27 01:46:45;;;;;;;8.18;5.88;;;10.60;99.90;;;;;;5013742;28;20049;-77
2023/10/27 01:49:32;;;;;;;9.27;6.53;;;10.60;99.90;;;;;;5001654;28;20125;-77
2023/10/27 01:52:18;;;;;;;10.35;6.68;;;10.60;99.90;;;;;;4998473;28;20077;-76
2023/10/27 01:55:04;;;;;;;10.63;6.07;;;10.60;99.90;;;;;;5000858;28;20524;-76
2023/10/27 01:57:50;;;;;;;9.00;5.90;;;10.60;99.90;;;;;;4990541;28;20073;-76
2023/10/27 02:00:36;;;;;;;8.52;5.97;;;10.60;99.90;;;;;;4999322;28;20042;-76
2023/10/27 02:03:22;;;;;;;11.63;6.20;;;10.60;99.90;;;;;;4986990;28;20076;-76
2023/10/27 02:06:08;;;;;;;12.70;6.03;;;10.50;99.90;;;;;;4986217;28;20125;-76
2023/10/27 02:08:54;;;;;;;10.32;6.07;;;10.60;99.90;;;;;;5011368;28;20160;-76
2023/10/27 02:11:40;;;;;;;11.15;7.03;;;10.60;99.90;;;;;;5004069;28;20113;-77
2023/10/27 02:14:26;;;;;;;8.95;6.00;;;10.60;99.90;;;;;;4987653;28;20050;-77
2023/10/27 02:17:12;;;;;;;12.63;5.72;;;10.60;99.90;;;;;;5001348;28;20777;-76
2023/10/27 02:19:58;;;;;;;10.02;6.07;;;10.60;99.90;;;;;;5001179;28;20386;-76
2023/10/27 02:22:44;;;;;;;11.68;6.28;;;10.60;99.90;;;;;;5014672;28;20034;-76
2023/10/27 02:25:30;;;;;;;13.82;7.35;;;10.60;99.90;;;;;;5014595;28;20042;-77
2023/10/27 02:28:17;;;;;;;7.80;6.10;;;10.60;99.90;;;;;;4994789;28;20053;-76
2023/10/27 02:31:04;;;;;;;12.55;6.40;;;10.60;99.90;;;;;;4987628;28;20057;-76
2023/10/27 02:33:50;;;;;;;9.15;6.57;;;10.60;99.90;;;;;;4987339;28;20367;-76
2023/10/27 02:36:37;;;;;;;12.98;7.15;;;10.60;99.90;;;;;;5009043;28;20045;-76
2023/10/27 02:39:23;;;;;;;11.00;6.93;;;10.60;99.90;;;;;;4987346;28;20049;-77
2023/10/27 02:42:09;;;;;;;9.55;6.50;;;10.60;99.90;;;;;;5000270;28;20038;-76
2023/10/27 02:44:54;;;;;;;13.40;7.50;;;10.60;99.90;;;;;;5000124;28;20470;-77
2023/10/27 02:47:40;;;;;;;9.77;6.93;;;10.60;99.90;;;;;;4987152;28;20033;-76
2023/10/27 02:50:26;;;;;;;10.48;6.53;;;10.60;99.90;;;;;;4993820;28;20038;-77
2023/10/27 02:53:12;;;;;;;11.40;7.35;;;10.60;99.90;;;;;;4996100;28;20062;-76
2023/10/27 02:56:09;;;;;;;10.43;7.00;;;10.60;99.90;;;;;;4994391;28;20042;-76
2023/10/27 02:58:55;;;;;;;13.20;6.97;;;10.50;99.90;;;;;;5008140;28;20030;-76
2023/10/27 03:01:44;;;;;;;12.32;7.45;;;10.50;99.90;;;;;;5027944;28;20401;-76
2023/10/27 03:04:31;;;;;;;11.43;6.93;;;10.50;99.90;;;;;;5001665;28;20120;-76
2023/10/27 03:07:17;;;;;;;11.80;7.10;;;10.50;99.90;;;;;;4994501;28;20132;-76
2023/10/27 03:10:03;;;;;;;19.05;7.47;;;10.50;99.90;;;;;;4984079;28;20050;-76
2023/10/27 03:12:49;;;;;;;13.65;6.65;;;10.50;99.90;;;;;;4987576;28;20038;-76
2023/10/27 03:15:35;;;;;;;12.43;6.82;;;10.50;99.90;;;;;;4997399;28;20467;-77
2023/10/27 03:18:21;;;;;;;10.48;6.22;;;10.50;99.90;;;;;;5002806;28;20045;-76
2023/10/27 03:21:07;;;;;;;10.35;7.22;;;10.50;99.90;;;;;;4986879;28;20109;-75
2023/10/27 03:23:53;;;;;;;10.05;7.00;;;10.50;99.90;;;;;;4976985;28;20053;-76
2023/10/27 03:26:40;;;;;;;11.18;6.53;;;10.50;99.90;;;;;;5001342;28;20490;-77
2023/10/27 03:29:27;;;;;;;13.13;7.10;;;10.50;99.90;;;;;;4982460;28;20134;-76
2023/10/27 03:32:13;;;;;;;10.45;6.65;;;10.50;99.90;;;;;;4993901;28;20125;-76
2023/10/27 03:35:00;;;;;;;13.90;8.43;;;10.50;99.90;;;;;;4993327;28;20034;-76
2023/10/27 03:37:46;;;;;;;9.85;6.45;;;10.50;99.90;;;;;;5016149;28;20045;-76
2023/10/27 03:40:32;;;;;;;8.68;6.70;;;10.40;99.90;;;;;;4998951;28;20038;-76
2023/10/27 03:43:25;;;;;;;10.85;6.20;;;10.40;99.90;;;;;;5015842;28;20069;-76
2023/10/27 03:46:11;;;;;;;12.60;7.68;;;10.40;99.90;;;;;;5004572;28;20088;-76
2023/10/27 03:48:58;;;;;;;11.98;7.38;;;10.40;99.90;;;;;;4985347;28;20046;-76
2023/10/27 03:51:44;;;;;;;12.27;6.75;;;10.40;99.90;;;;;;4990874;28;20116;-76
2023/10/27 03:54:30;;;;;;;14.98;6.68;;;10.40;99.90;;;;;;5021899;28;20061;-76
2023/10/27 03:57:16;;;;;;;16.00;7.28;;;10.40;99.90;;;;;;4984740;28;20038;-76
2023/10/27 04:00:07;;;;;;;13.48;7.00;;;10.40;99.90;;;;;;5010615;28;20138;-76
2023/10/27 04:02:53;;;;;;;12.05;6.60;;;10.40;99.90;;;;;;5005495;28;20370;-76
2023/10/27 04:05:39;;;;;;;14.35;6.75;;;10.30;99.90;;;;;;5012943;28;20034;-78
2023/10/27 04:08:25;;;;;;;9.13;6.28;;;10.30;99.90;;;;;;5004851;28;20038;-77
2023/10/27 04:11:11;;;;;;;14.30;7.30;;;10.30;99.90;;;;;;4990804;28;20045;-76
2023/10/27 04:14:00;;;;;;;8.50;6.13;;;10.30;99.90;;;;;;5015593;28;20474;-77
2023/10/27 04:16:46;;;;;;;9.75;6.55;;;10.30;99.90;;;;;;5003825;28;20045;-77
2023/10/27 04:19:33;;;;;;;11.40;6.60;;;10.30;99.90;;;;;;5002829;28;20375;-76
2023/10/27 04:22:22;;;;;;;10.20;6.35;;;10.30;99.90;;;;;;5016517;28;20038;-76
2023/10/27 04:25:09;;;;;;;7.93;6.20;;;10.30;99.90;;;;;;4995002;28;20045;-76
2023/10/27 04:27:55;;;;;;;11.00;6.70;;;10.30;99.90;;;;;;5021544;28;20045;-76
2023/10/27 04:30:41;;;;;;;13.35;7.15;;;10.20;99.90;;;;;;5005374;28;20049;-76
2023/10/27 04:33:29;;;;;;;11.55;6.78;;;10.20;99.90;;;;;;5004254;28;20042;-76
2023/10/27 04:36:15;;;;;;;12.15;6.85;;;10.20;99.90;;;;;;5013754;28;20353;-76
2023/10/27 04:39:10;;;;;;;9.63;6.60;;;10.20;99.90;;;;;;4996966;28;20042;-76
2023/10/27 04:41:56;;;;;;;12.93;6.82;;;10.10;99.90;;;;;;5012975;28;20371;-75
2023/10/27 04:44:42;;;;;;;9.60;6.45;;;10.20;99.90;;;;;;5006894;28;20069;-75
2023/10/27 04:47:28;;;;;;;10.00;6.93;;;10.10;99.90;;;;;;5018667;28;20099;-75
2023/10/27 04:50:14;;;;;;;11.68;6.30;;;10.10;99.90;;;;;;5003522;28;20034;-76
2023/10/27 04:53:00;;;;;;;10.50;7.10;;;10.10;99.90;;;;;;4988856;28;20091;-75
2023/10/27 04:55:46;;;;;;;9.02;6.68;;;10.10;99.90;;;;;;4988284;28;20108;-75
2023/10/27 04:58:32;;;;;;;14.38;6.97;;;10.10;99.90;;;;;;5002199;28;20048;-76
2023/10/27 05:01:22;;;;;;;13.63;7.85;;;10.00;99.90;;;;;;5013387;28;20461;-75
2023/10/27 05:04:08;;;;;;;13.80;7.43;;;10.10;99.90;;;;;;5002323;28;20045;-76
2023/10/27 05:06:54;;;;;;;12.38;7.25;;;10.00;99.90;;;;;;5026469;28;20095;-76
2023/10/27 05:09:40;;;;;;;17.52;7.22;;;10.10;99.90;;;;;;5017756;28;20585;-75
2023/10/27 05:12:26;;;;;;;16.63;8.45;;;10.00;99.90;;;;;;5003655;28;20719;-76
2023/10/27 05:15:12;;;;;;;14.68;8.25;;;10.00;99.90;;;;;;5015079;28;20042;-76
2023/10/27 05:18:04;;;;;;;20.88;7.97;;;10.00;99.90;;;;;;5018529;28;20034;-76
2023/10/27 05:20:50;;;;;;;19.52;7.43;;;10.00;99.90;;;;;;5002712;28;20041;-76
2023/10/27 05:23:36;;;;;;;11.25;6.85;;;10.10;99.90;;;;;;4988994;28;20077;-75
2023/10/27 05:26:22;;;;;;;34.35;7.22;;;10.00;99.90;;;;;;4994430;28;20746;-76
2023/10/27 05:29:08;;;;;;;10.15;6.10;;;10.00;99.90;;;;;;4999759;28;20041;-76
2023/10/27 05:31:54;;;;;;;8.32;6.10;;;10.00;99.90;;;;;;4994386;28;20386;-75
2023/10/27 05:34:40;;;;;;;9.55;5.97;;;10.00;99.90;;;;;;5007053;28;20500;-76
2023/10/27 05:37:26;;;;;;;7.70;5.68;;;10.00;99.90;;;;;;5020047;28;20041;-76
2023/10/27 05:40:13;;;;;;;11.48;6.80;;;10.00;99.90;;;;;;4993436;28;20063;-76
2023/10/27 05:43:00;;;;;;;8.82;6.40;;;10.00;99.90;;;;;;4982611;28;20046;-76
2023/10/27 05:45:46;;;;;;;17.38;7.72;;;10.00;99.90;;;;;;5000269;28;20124;-76
2023/10/27 05:48:32;;;;;;;12.55;6.30;;;10.00;99.90;;;;;;4999271;28;20111;-76
2023/10/27 05:51:18;;;;;;;12.15;6.95;;;10.00;99.90;;;;;;5013482;28;20483;-76
2023/10/27 05:54:07;;;;;;;9.38;6.88;;;10.00;99.90;;;;;;4981939;28;20070;-76
2023/10/27 05:56:53;;;;;;;9.32;7.40;;;10.00;99.90;;;;;;5027773;28;20691;-75
2023/10/27 05:59:39;;;;;;;11.55;7.75;;;9.90;99.90;;;;;;5015832;28;20427;-76
2023/10/27 06:02:25;;;;;;;10.63;7.68;;;9.90;99.90;;;;;;4982053;28;20076;-76
2023/10/27 06:05:13;;;;;;;16.38;7.97;;;10.00;99.90;;;;;;5029859;28;20047;-76
2023/10/27 06:07:59;;;;;;;18.90;9.50;;;10.00;99.90;;;;;;4995159;28;20483;-76
2023/10/27 06:10:45;;;;;;;14.77;9.80;;;10.00;99.90;;;;;;4998263;28;20061;-76
2023/10/27 06:13:31;;;;;;;14.98;9.23;;;10.00;99.90;;;;;;5009945;28;20044;-76
2023/10/27 06:16:17;;;;;;;18.42;12.18;;;10.00;99.90;;;;;;4998372;28;20527;-76
2023/10/27 06:19:04;;;;;;;18.40;11.85;;;10.00;99.90;;;;;;5014568;28;20049;-76
2023/10/27 06:21:49;;;;;;;17.85;12.20;;;10.00;99.90;;;;;;5010668;28;20109;-76
2023/10/27 06:24:35;;;;;;;19.73;11.82;;;10.00;99.90;;;;;;5027151;28;20040;-76
2023/10/27 06:27:21;;;;;;;17.45;10.88;;;10.10;99.90;;;;;;4996660;28;20053;-76
2023/10/27 06:30:08;;;;;;;20.60;12.23;;;10.10;99.90;;;;;;5013938;28;20049;-76
2023/10/27 06:32:54;;;;;;;19.88;11.98;;;10.10;99.90;;;;;;5016032;28;20038;-76
2023/10/27 06:35:40;;;;;;;19.80;12.63;;;10.10;99.90;;;;;;5000011;28;20404;-76
2023/10/27 06:38:26;;;;;;;20.90;12.45;;;10.10;99.90;;;;;;5015481;28;20111;-76
2023/10/27 06:41:12;;;;;;;22.63;12.88;;;10.20;99.90;;;;;;4997579;28;20041;-76
2023/10/27 06:43:58;;;;;;;22.60;11.73;;;10.20;99.90;;;;;;5024784;28;20049;-75
2023/10/27 06:46:45;;;;;;;22.75;12.70;;;10.20;99.90;;;;;;4981200;28;20046;-75
2023/10/27 06:49:31;;;;;;;29.27;12.65;;;10.20;99.90;;;;;;4999457;28;20471;-76
2023/10/27 06:52:16;;;;;;;20.10;12.32;;;10.20;99.90;;;;;;5025581;28;20044;-76
2023/10/27 06:55:03;;;;;;;24.73;14.00;;;10.20;99.90;;;;;;5011414;28;20494;-76
2023/10/27 06:57:49;;;;;;;21.15;12.50;;;10.20;99.90;;;;;;5016615;28;20128;-76
2023/10/27 07:00:35;;;;;;;20.02;10.95;;;10.30;99.90;;;;;;5002395;28;20045;-75
2023/10/27 07:03:21;;;;;;;23.38;13.10;;;10.30;99.90;;;;;;4989171;28;20049;-75
2023/10/27 07:06:07;;;;;;;25.17;14.23;;;10.30;99.90;;;;;;4985370;28;20172;-76
2023/10/27 07:08:53;;;;;;;20.98;12.45;;;10.30;99.90;;;;;;4998687;28;20046;-76
2023/10/27 07:11:39;;;;;;;23.30;13.25;;;10.30;99.90;;;;;;5009631;28;20038;-76
2023/10/27 07:14:25;;;;;;;24.02;13.65;;;10.30;99.90;;;;;;5025560;28;20498;-76
2023/10/27 07:17:11;;;;;;;23.38;13.85;;;10.30;99.90;;;;;;4981484;28;20050;-76
2023/10/27 07:19:57;;;;;;;27.02;13.98;;;10.40;99.90;;;;;;4988338;28;20056;-77
2023/10/27 07:22:43;;;;;;;23.83;14.13;;;10.40;99.90;;;;;;5023002;28;20038;-75
2023/10/27 07:25:29;;;;;;;23.17;12.70;;;10.40;99.90;;;;;;5001897;28;20111;-76
2023/10/27 07:28:15;;;;;;;24.60;14.40;;;10.40;99.90;;;;;;5012187;28;20053;-76
2023/10/27 07:31:01;;;;;;;22.52;12.98;;;10.40;99.90;;;;;;5002623;28;20049;-76
2023/10/27 07:33:47;;;;;;;24.75;14.50;;;10.40;99.90;;;;;;5016227;28;20370;-75
2023/10/27 07:36:33;;;;;;;26.65;14.70;;;10.50;99.90;;;;;;5002738;28;20052;-75
2023/10/27 07:39:19;;;;;;;24.45;14.55;;;10.50;99.90;;;;;;4982513;28;20050;-75
2023/10/27 07:42:07;;;;;;;27.52;13.90;;;10.50;99.90;;;;;;5001617;28;20052;-75
2023/10/27 07:44:54;;;;;;;22.40;13.15;;;10.50;99.90;;;;;;5015329;28;20034;-76
2023/10/27 07:47:40;;;;;;;22.45;13.57;;;10.50;99.90;;;;;;5002073;28;20042;-75
2023/10/27 07:50:26;;;;;;;26.73;14.70;;;10.60;99.90;;;;;;4996451;28;20347;-76
2023/10/27 07:53:13;;;;;;;24.92;13.93;;;10.50;99.90;;;;;;5016746;28;20073;-75
2023/10/27 07:55:59;;;;;;;24.40;13.70;;;10.60;99.90;;;;;;4999993;28;20130;-76
2023/10/27 07:58:46;;;;;;;31.55;17.00;;;10.60;99.90;;;;;;5000788;28;20113;-76
2023/10/27 08:01:32;;;;;;;30.90;14.77;;;10.60;99.90;;;;;;4995478;28;20045;-76
2023/10/27 08:04:19;;;;;;;24.10;14.07;;;10.60;99.90;;;;;;5008261;28;20378;-76
2023/10/27 08:07:04;;;;;;;23.05;12.18;;;10.60;99.90;;;;;;5031199;28;20061;-77
2023/10/27 08:09:51;;;;;;;20.80;11.80;;;10.60;99.90;;;;;;4981787;28;20042;-75
2023/10/27 08:12:37;;;;;;;19.85;11.38;;;10.60;99.90;;;;;;5015832;28;20052;-76
2023/10/27 08:15:23;;;;;;;22.50;12.23;;;10.60;99.90;;;;;;4982542;28;20046;-76
2023/10/27 08:18:10;;;;;;;18.08;10.27;;;10.60;99.90;;;;;;5014732;28;20107;-76
2023/10/27 08:20:56;;;;;;;20.80;11.43;;;10.60;99.90;;;;;;4986557;28;20078;-76
2023/10/27 08:23:42;;;;;;;18.35;10.90;;;10.60;99.90;;;;;;5003697;28;20132;-76
2023/10/27 08:26:28;;;;;;;20.45;11.13;;;10.60;99.90;;;;;;5002446;28;20133;-77
2023/10/27 08:29:14;;;;;;;22.95;12.50;;;10.60;99.90;;;;;;5029008;28;20100;-76
2023/10/27 08:32:00;;;;;;;19.73;11.30;;;10.60;99.90;;;;;;5003026;28;20073;-77
2023/10/27 08:34:46;;;;;;;18.23;10.68;;;10.60;99.90;;;;;;4990592;28;20037;-77
2023/10/27 08:37:32;;;;;;;17.15;10.63;;;10.60;99.90;;;;;;5023081;28;20050;-76
2023/10/27 08:40:18;;;;;;;19.13;11.30;;;10.50;99.90;;;;;;4990021;28;20771;-77
2023/10/27 08:43:04;;;;;;;19.65;10.52;;;10.60;99.90;;;;;;5005029;28;20099;-76
2023/10/27 08:45:50;;;;;;;17.50;10.45;;;10.50;99.90;;;;;;5028334;28;20051;-75
2023/10/27 08:48:36;;;;;;;17.35;9.77;;;10.50;99.90;;;;;;5013722;28;20113;-76
2023/10/27 08:51:23;;;;;;;17.88;10.45;;;10.50;99.90;;;;;;5028489;28;20037;-76
2023/10/27 08:54:10;;;;;;;17.55;10.35;;;10.50;99.90;;;;;;5015650;28;20030;-76
2023/10/27 08:56:56;;;;;;;18.42;9.82;;;10.50;99.90;;;;;;5001260;28;20103;-77
2023/10/27 08:59:43;;;;;;;18.95;10.38;;;10.50;99.90;;;;;;5003561;28;20050;-76
2023/10/27 09:02:30;;;;;;;24.08;10.65;;;10.50;99.90;;;;;;4989168;28;20119;-76
2023/10/27 09:05:17;;;;;;;20.65;10.82;;;10.50;99.90;;;;;;5014441;28;20038;-76
2023/10/27 09:08:04;;;;;;;20.67;10.50;;;10.50;99.90;;;;;;5015416;28;20072;-76
2023/10/27 09:10:50;;;;;;;18.27;10.18;;;10.50;99.90;;;;;;5002488;28;20478;-77
2023/10/27 09:13:39;;;;;;;18.95;9.98;;;10.60;99.90;;;;;;5013948;28;20046;-77
2023/10/27 09:16:26;;;;;;;18.88;10.80;;;10.60;99.90;;;;;;5014621;28;20049;-78
2023/10/27 09:19:25;;;;;;;20.20;10.55;;;10.60;99.90;;;;;;5023089;28;20042;-76
2023/10/27 09:22:17;;;;;;;17.70;10.68;;;10.60;99.90;;;;;;5009110;28;20037;-76
2023/10/27 09:25:22;;;;;;;20.35;11.15;;;10.60;99.90;;;;;;4978621;28;20038;-76
2023/10/27 09:28:11;;;;;;;21.80;11.10;;;10.60;99.90;;;;;;4994147;28;20129;-76
2023/10/27 09:30:57;;;;;;;23.90;11.82;;;10.60;99.90;;;;;;5008706;28;20121;-77
2023/10/27 09:33:43;;;;;;;21.65;12.20;;;10.70;99.90;;;;;;4999316;28;20061;-76
2023/10/27 09:36:30;;;;;;;18.30;10.63;;;10.70;99.90;;;;;;5028289;28;20121;-76
2023/10/27 09:39:16;;;;;;;24.83;12.60;;;10.70;99.90;;;;;;4998770;28;20033;-77
2023/10/27 09:42:07;;;;;;;20.70;10.93;;;10.70;99.90;;;;;;5020294;28;20053;-77
2023/10/27 09:45:06;;;;;;;27.23;12.52;;;10.80;99.90;;;;;;4999640;28;20038;-77
2023/10/27 09:48:02;;;;;;;21.83;12.50;;;10.80;99.90;;;;;;5010423;28;20489;-76
2023/10/27 09:50:49;;;;;;;21.63;11.65;;;10.80;99.90;;;;;;5007644;28;20121;-77
2023/10/27 09:53:35;;;;;;;24.98;12.50;;;10.90;99.90;;;;;;4983841;28;20042;-77
2023/10/27 09:56:21;;;;;;;23.80;12.27;;;10.90;99.90;;;;;;5000277;28;20061;-77
2023/10/27 09:59:07;;;;;;;23.45;11.18;;;10.90;99.90;;;;;;5030356;28;20033;-76
2023/10/27 10:01:53;;;;;;;22.77;12.40;;;10.90;99.90;;;;;;4987006;28;20042;-76
2023/10/27 10:05:09;;;;;;;18.95;11.48;;;10.90;99.90;;;;;;5019836;28;20041;-76
2023/10/27 10:07:56;;;;;;;24.88;13.25;;;10.90;99.90;;;;;;5004047;28;20180;-77
2023/10/27 10:10:42;;;;;;;25.90;13.87;;;10.90;99.90;;;;;;5029952;28;20080;-77
2023/10/27 10:13:38;;;;;;;23.80;13.25;;;11.00;99.90;;;;;;5016038;28;20045;-77
2023/10/27 10:16:23;;;;;;;21.83;12.25;;;11.00;99.90;;;;;;5042634;28;20229;-77
2023/10/27 10:19:09;;;;;;;23.17;11.63;;;11.00;99.90;;;;;;5006015;28;20040;-77
2023/10/27 10:21:56;;;;;;;22.45;12.68;;;11.00;99.90;;;;;;5001815;28;20038;-76
2023/10/27 10:25:26;;;;;;;25.90;13.23;;;11.10;99.90;;;;;;5012309;28;20778;-76
2023/10/27 10:28:18;;;;;;;24.17;12.55;;;11.10;99.90;;;;;;5013047;28;20053;-77
2023/10/27 10:31:07;;;;;;;25.63;13.15;;;11.10;99.90;;;;;;5014093;28;20049;-77
2023/10/27 10:34:08;;;;;;;27.42;14.35;;;11.20;99.90;;;;;;5011310;28;20062;-76
2023/10/27 10:37:26;;;;;;;23.08;12.40;;;11.20;99.90;;;;;;5012718;28;20067;-77
2023/10/27 10:40:18;;;;;;;;;;;11.20;99.90;;;;;;5006163;28;20041;-77
2023/10/27 10:43:40;;;;;;;24.27;13.25;;;11.20;99.90;;;;;;4997510;28;20373;-77
2023/10/27 10:46:28;;;;;;;25.73;14.15;;;11.20;99.90;;;;;;5006219;28;20042;-77
2023/10/27 10:49:24;;;;;;;26.77;13.77;;;11.20;99.90;;;;;;5023888;28;20038;-76
2023/10/27 10:52:10;;;;;;;29.05;15.27;;;11.20;99.90;;;;;;4997634;28;20038;-76
2023/10/27 10:54:56;;;;;;;23.48;12.82;;;11.20;99.90;;;;;;4998825;28;20033;-77
2023/10/27 10:57:42;;;;;;;24.10;13.05;;;11.20;99.90;;;;;;4998923;28;20033;-77
2023/10/27 11:00:35;;;;;;;26.27;13.65;;;11.20;99.90;;;;;;4999691;28;20038;-77
2023/10/27 11:03:22;;;;;;;29.67;15.73;;;11.20;99.90;;;;;;4999493;28;20045;-77
2023/10/27 11:06:08;;;;;;;28.85;15.25;;;11.20;99.90;;;;;;4993841;28;20038;-76
2023/10/27 11:08:54;;;;;;;28.85;16.83;;;11.20;99.90;;;;;;4989768;28;20072;-77
2023/10/27 11:11:40;;;;;;;32.75;17.75;;;11.20;99.90;;;;;;5013282;28;20041;-77
2023/10/27 11:14:26;;;;;;;32.08;17.00;;;11.20;99.90;;;;;;5020210;28;20414;-77
2023/10/27 11:17:12;;;;;;;39.80;18.65;;;11.10;99.90;;;;;;4987478;28;20459;-76
2023/10/27 11:20:00;;;;;;;33.85;17.30;;;11.20;99.90;;;;;;5032628;28;20045;-76
2023/10/27 11:22:46;;;;;;;;;;;11.10;99.90;;;;;;4999329;28;20499;-76
2023/10/27 11:25:32;;;;;;;37.10;17.45;;;11.10;99.90;;;;;;4999481;28;19913;-76
2023/10/27 11:28:21;;;;;;;38.50;18.55;;;11.10;99.90;;;;;;4986274;28;20058;-77
2023/10/27 11:31:13;;;;;;;35.20;17.85;;;11.10;99.90;;;;;;5012850;28;20049;-76
2023/10/27 11:34:00;;;;;;;34.67;17.63;;;11.20;99.90;;;;;;5028192;28;20046;-77
2023/10/27 11:37:00;;;;;;;34.95;18.48;;;11.20;99.90;;;;;;5013680;28;20037;-77
2023/10/27 11:39:46;;;;;;;35.78;19.02;;;11.20;99.90;;;;;;4990797;28;20038;-75
2023/10/27 11:42:32;;;;;;;36.97;19.42;;;11.20;99.90;;;;;;5011720;28;20754;-76
2023/10/27 11:45:18;;;;;;;41.38;19.45;;;11.20;99.90;;;;;;5027494;28;20038;-76
2023/10/27 11:48:04;;;;;;;41.35;19.45;;;11.20;99.90;;;;;;4980556;28;20153;-76
2023/10/27 11:50:50;;;;;;;41.25;19.33;;;11.20;99.90;;;;;;5023207;28;20053;-77
2023/10/27 11:53:45;;;;;;;43.88;21.02;;;11.30;99.90;;;;;;5013923;28;20668;-76
2023/10/27 11:56:31;;;;;;;40.80;19.50;;;11.30;99.90;;;;;;5026758;28;20042;-76
2023/10/27 11:59:18;;;;;;;41.90;20.75;;;11.30;99.90;;;;;;5013101;28;20124;-78
2023/10/27 12:02:04;;;;;;;43.50;20.35;;;11.30;99.90;;;;;;4981300;28;20077;-76
2023/10/27 12:04:50;;;;;;;45.28;21.27;;;11.30;99.90;;;;;;5001299;28;20048;-77
2023/10/27 12:07:36;;;;;;;40.72;20.38;;;11.30;99.90;;;;;;4995921;28;20063;-76
2023/10/27 12:10:22;;;;;;;41.08;19.13;;;11.30;99.90;;;;;;5014032;28;20046;-77
2023/10/27 12:13:08;;;;;;;44.17;20.15;;;11.40;99.90;;;;;;4991985;28;20096;-78
2023/10/27 12:15:54;;;;;;;45.28;20.20;;;11.40;99.90;;;;;;4969568;28;20058;-77
2023/10/27 12:18:40;;;;;;;44.00;21.17;;;11.40;99.90;;;;;;4998974;28;20040;-77
2023/10/27 12:21:26;;;;;;;43.75;20.73;;;11.40;99.90;;;;;;5003769;28;20141;-77
2023/10/27 12:24:15;;;;;;;42.80;19.58;;;11.40;99.90;;;;;;5019099;28;20103;-77
2023/10/27 12:27:01;;;;;;;46.90;20.13;;;11.40;99.90;;;;;;4998298;28;20073;-77
2023/10/27 12:29:47;;;;;;;40.03;19.02;;;11.40;99.90;;;;;;5015281;28;20057;-77
2023/10/27 12:32:33;;;;;;;43.10;20.50;;;11.40;99.90;;;;;;5017561;28;20736;-77
2023/10/27 12:35:22;;;;;;;34.15;17.63;;;11.30;99.90;;;;;;5001706;28;20125;-76
2023/10/27 12:38:08;;;;;;;39.55;19.25;;;11.40;99.90;;;;;;4995669;28;20040;-77
2023/10/27 12:40:55;;;;;;;32.55;17.00;;;11.40;99.90;;;;;;4994337;28;20084;-77
2023/10/27 12:43:41;;;;;;;35.03;17.48;;;11.30;99.90;;;;;;4977080;28;20052;-76
2023/10/27 12:46:27;;;;;;;27.23;15.10;;;11.30;99.90;;;;;;5017493;28;20045;-77
2023/10/27 12:49:13;;;;;;;29.50;15.00;;;11.40;99.90;;;;;;5001381;28;20067;-76
2023/10/27 12:51:59;;;;;;;27.40;16.02;;;11.30;99.90;;;;;;4994267;28;20039;-76
2023/10/27 12:54:45;;;;;;;28.55;16.08;;;11.30;99.90;;;;;;5009065;28;20108;-77
2023/10/27 12:57:32;;;;;;;26.90;15.23;;;11.30;99.90;;;;;;5008595;28;20029;-77
2023/10/27 13:00:20;;;;;;;24.17;15.05;;;11.30;99.90;;;;;;5001421;28;20490;-77
2023/10/27 13:03:07;;;;;;;28.27;15.70;;;11.30;99.90;;;;;;5007023;28;20046;-76
2023/10/27 13:05:53;;;;;;;27.58;16.13;;;11.20;99.90;;;;;;5007480;28;20551;-77
2023/10/27 13:08:39;;;;;;;26.88;17.30;;;11.20;99.90;;;;;;4999504;28;20151;-77
2023/10/27 13:11:26;;;;;;;29.02;16.77;;;11.20;99.90;;;;;;5011555;28;20073;-77
2023/10/27 13:14:12;;;;;;;28.70;17.02;;;11.20;99.90;;;;;;4994179;28;20041;-76
2023/10/27 13:16:58;;;;;;;27.05;15.63;;;11.20;99.90;;;;;;4994565;28;20039;-77
2023/10/27 13:19:46;;;;;;;27.23;15.95;;;11.20;99.90;;;;;;5013972;28;20041;-77
2023/10/27 13:22:33;;;;;;;23.67;14.88;;;11.20;99.90;;;;;;4999556;28;20046;-77
2023/10/27 13:25:19;;;;;;;25.47;15.00;;;11.20;99.90;;;;;;4982173;28;20041;-77
2023/10/27 13:28:05;;;;;;;28.23;16.90;;;11.30;99.90;;;;;;5006117;28;20054;-77
2023/10/27 13:30:51;;;;;;;26.58;15.85;;;11.20;99.90;;;;;;5022578;28;20069;-77
2023/10/27 13:33:37;;;;;;;26.50;14.60;;;11.20;99.90;;;;;;4999598;28;20038;-77
2023/10/27 13:36:23;;;;;;;24.50;14.88;;;11.20;99.90;;;;;;4987528;28;20045;-77
2023/10/27 13:39:09;;;;;;;24.92;15.07;;;11.30;99.90;;;;;;5000989;28;20123;-77
2023/10/27 13:41:55;;;;;;;24.15;14.45;;;11.20;99.90;;;;;;4994735;28;20072;-76
2023/10/27 13:44:42;;;;;;;25.73;14.23;;;11.30;99.90;;;;;;5000249;28;20042;-76
2023/10/27 13:47:28;;;;;;;28.03;15.23;;;11.30;99.90;;;;;;4999536;28;20041;-77
2023/10/27 13:50:14;;;;;;;27.10;15.50;;;11.30;99.90;;;;;;4986239;28;20482;-76
2023/10/27 13:53:00;;;;;;;22.08;13.75;;;11.30;99.90;;;;;;5000491;28;20624;-77
2023/10/27 13:55:46;;;;;;;23.15;13.88;;;11.30;99.90;;;;;;5014576;28;20037;-77
2023/10/27 13:58:32;;;;;;;24.52;13.20;;;11.20;99.90;;;;;;4983310;28;20486;-77
2023/10/27 14:01:18;;;;;;;22.05;13.93;;;11.20;99.90;;;;;;4992792;28;20065;-77
2023/10/27 14:04:06;;;;;;;21.52;13.57;;;11.30;99.90;;;;;;4997533;28;20370;-77
2023/10/27 14:06:52;;;;;;;25.58;14.75;;;11.30;99.90;;;;;;5012643;28;20390;-77
2023/10/27 14:09:39;;;;;;;21.45;13.20;;;11.20;99.90;;;;;;4976871;28;20052;-77
2023/10/27 14:12:25;;;;;;;21.23;13.15;;;11.20;99.90;;;;;;4992210;28;20049;-77
2023/10/27 14:15:19;;;;;;;20.58;12.70;;;11.20;99.90;;;;;;4969998;28;20034;-77